createdAt,value
2022-12-23T00:00:01.942Z,8.79
2022-12-23T00:01:07.855Z,8.78
2022-12-23T00:02:13.214Z,8.77
2022-12-23T00:03:16.353Z,8.77
2022-12-23T00:04:19.718Z,8.78
2022-12-23T00:05:22.710Z,8.79
2022-12-23T00:06:26.110Z,8.78
2022-12-23T00:07:29.272Z,8.77
2022-12-23T00:08:32.307Z,8.77
2022-12-23T00:09:35.320Z,8.78
2022-12-23T00:10:40.277Z,8.77
2022-12-23T00:12:03.221Z,8.77
2022-12-23T00:13:26.085Z,8.77
2022-12-23T00:14:47.987Z,8.76
2022-12-23T00:15:51.012Z,8.76
2022-12-23T00:16:54.215Z,8.77
2022-12-23T00:17:57.159Z,8.78
2022-12-23T00:19:00.504Z,8.79
2022-12-23T00:20:05.131Z,8.80
2022-12-23T00:21:11.409Z,8.79
2022-12-23T00:22:14.587Z,8.79
2022-12-23T00:23:17.557Z,8.80
2022-12-23T00:24:20.733Z,8.81
2022-12-23T00:25:40.388Z,8.80
2022-12-23T00:26:43.921Z,8.80
2022-12-23T00:28:01.538Z,8.80
2022-12-23T00:29:05.072Z,8.80
2022-12-23T00:30:10.702Z,8.81
2022-12-23T00:31:15.662Z,8.82
2022-12-23T00:32:18.739Z,8.81
2022-12-23T00:33:24.583Z,8.80
2022-12-23T00:34:27.594Z,8.80
2022-12-23T00:35:32.359Z,8.81
2022-12-23T00:36:38.511Z,8.80
2022-12-23T00:37:41.610Z,8.80
2022-12-23T00:39:03.744Z,8.79
2022-12-23T00:40:28.254Z,8.78
2022-12-23T00:41:50.547Z,8.76
2022-12-23T00:42:53.608Z,8.76
2022-12-23T00:43:57.207Z,8.76
2022-12-23T00:45:15.723Z,8.76
2022-12-23T00:46:19.243Z,8.73
2022-12-23T00:47:41.735Z,8.72
2022-12-23T00:49:03.668Z,8.71
2022-12-23T00:50:07.711Z,8.68
2022-12-23T00:51:10.786Z,8.68
2022-12-23T00:52:17.846Z,8.67
2022-12-23T00:53:21.057Z,8.66
2022-12-23T00:54:24.279Z,8.66
2022-12-23T00:55:27.333Z,8.64
2022-12-23T00:56:30.960Z,8.64
2022-12-23T00:57:34.652Z,8.63
2022-12-23T00:58:37.832Z,8.63
2022-12-23T00:59:41.187Z,8.61
2022-12-23T01:01:04.150Z,8.60
2022-12-23T01:02:26.154Z,8.60
2022-12-23T01:03:48.393Z,8.59
2022-12-23T01:05:10.593Z,8.60
2022-12-23T01:06:14.401Z,8.60
2022-12-23T01:07:17.398Z,8.61
2022-12-23T01:08:23.319Z,8.61
2022-12-23T01:09:27.090Z,8.60
2022-12-23T01:10:30.545Z,8.60
2022-12-23T01:11:34.234Z,8.60
2022-12-23T01:12:37.224Z,8.59
2022-12-23T01:13:40.277Z,8.60
2022-12-23T01:14:43.342Z,8.59
2022-12-23T01:15:46.731Z,8.58
2022-12-23T01:16:49.925Z,8.57
2022-12-23T01:17:53.009Z,8.55
2022-12-23T01:18:55.980Z,8.55
2022-12-23T01:19:59.006Z,8.54
2022-12-23T01:21:08.378Z,8.55
2022-12-23T01:22:11.288Z,8.54
2022-12-23T01:23:14.304Z,8.54
2022-12-23T01:24:17.320Z,8.55
2022-12-23T01:25:20.413Z,8.55
2022-12-23T01:26:23.443Z,8.55
2022-12-23T01:27:26.395Z,8.56
2022-12-23T01:28:31.096Z,8.56
2022-12-23T01:29:34.027Z,8.54
2022-12-23T01:30:37.894Z,8.53
2022-12-23T01:31:41.274Z,8.53
2022-12-23T01:32:44.204Z,8.53
2022-12-23T01:33:47.492Z,8.53
2022-12-23T01:34:50.485Z,8.52
2022-12-23T01:36:00.372Z,8.51
2022-12-23T01:37:03.697Z,8.52
2022-12-23T01:38:06.594Z,8.52
2022-12-23T01:39:09.687Z,8.52
2022-12-23T01:40:13.003Z,8.53
2022-12-23T01:41:47.097Z,8.53
2022-12-23T01:42:51.041Z,8.54
2022-12-23T01:43:54.771Z,8.54
2022-12-23T01:45:04.583Z,8.55
2022-12-23T01:46:07.626Z,8.54
2022-12-23T01:47:14.867Z,8.53
2022-12-23T01:48:24.363Z,8.54
2022-12-23T01:49:27.381Z,8.53
2022-12-23T01:50:32.935Z,8.53
2022-12-23T01:51:36.418Z,8.52
2022-12-23T01:53:10.078Z,8.51
2022-12-23T01:54:13.237Z,8.47
2022-12-23T01:55:20.811Z,8.46
2022-12-23T01:56:26.931Z,8.46
2022-12-23T01:57:30.717Z,8.45
2022-12-23T01:58:43.105Z,8.44
2022-12-23T02:00:05.679Z,8.42
2022-12-23T02:01:29.405Z,8.42
2022-12-23T02:02:54.756Z,8.41
2022-12-23T02:04:01.510Z,8.40
2022-12-23T02:05:04.873Z,8.40
2022-12-23T02:06:48.033Z,8.42
2022-12-23T02:08:11.905Z,8.41
2022-12-23T02:09:25.388Z,8.41
2022-12-23T02:10:40.322Z,8.42
2022-12-23T02:12:05.247Z,8.42
2022-12-23T02:13:22.761Z,8.40
2022-12-23T02:15:06.660Z,8.39
2022-12-23T02:16:16.964Z,8.36
2022-12-23T02:17:42.364Z,8.35
2022-12-23T02:18:59.367Z,8.35
2022-12-23T02:20:05.058Z,8.35
2022-12-23T02:21:26.500Z,8.36
2022-12-23T02:22:58.126Z,8.35
2022-12-23T02:24:22.883Z,8.34
2022-12-23T02:25:37.784Z,8.33
2022-12-23T02:26:46.739Z,8.34
2022-12-23T02:28:25.955Z,8.35
2022-12-23T02:29:44.511Z,8.37
2022-12-23T02:31:28.500Z,8.39
2022-12-23T02:32:38.328Z,8.39
2022-12-23T02:33:54.953Z,8.41
2022-12-23T02:35:29.288Z,8.43
2022-12-23T02:36:43.671Z,8.44
2022-12-23T02:38:09.923Z,8.46
2022-12-23T02:39:29.258Z,8.44
2022-12-23T02:40:47.772Z,8.44
2022-12-23T02:41:59.105Z,8.46
2022-12-23T02:43:04.808Z,8.46
2022-12-23T02:44:34.031Z,8.47
2022-12-23T02:46:12.297Z,8.46
2022-12-23T02:47:42.455Z,8.43
2022-12-23T02:49:12.970Z,8.41
2022-12-23T02:50:25.423Z,8.38
2022-12-23T02:51:34.997Z,8.39
2022-12-23T02:52:41.340Z,8.40
2022-12-23T02:53:55.034Z,8.41
2022-12-23T02:55:08.546Z,8.41
2022-12-23T02:56:14.630Z,8.39
2022-12-23T02:57:23.464Z,8.39
2022-12-23T02:58:36.634Z,8.39
2022-12-23T02:59:44.697Z,8.39
2022-12-23T03:00:49.611Z,8.40
2022-12-23T03:01:54.683Z,8.40
2022-12-23T03:02:59.421Z,8.40
2022-12-23T03:04:02.808Z,8.38
2022-12-23T03:05:07.179Z,8.37
2022-12-23T03:06:27.527Z,8.37
2022-12-23T03:07:35.460Z,8.36
2022-12-23T03:08:43.484Z,8.35
2022-12-23T03:10:09.456Z,8.35
2022-12-23T03:11:15.317Z,8.35
2022-12-23T03:12:39.065Z,8.36
2022-12-23T03:14:05.149Z,8.35
2022-12-23T03:15:17.111Z,8.34
2022-12-23T03:16:57.907Z,8.35
2022-12-23T03:18:16.655Z,8.34
2022-12-23T03:19:42.792Z,8.32
2022-12-23T03:21:08.925Z,8.32
2022-12-23T03:22:17.513Z,8.33
2022-12-23T03:23:26.208Z,8.34
2022-12-23T03:24:44.771Z,8.36
2022-12-23T03:25:59.036Z,8.37
2022-12-23T03:27:15.373Z,8.38
2022-12-23T03:28:33.918Z,8.40
2022-12-23T03:29:54.340Z,8.41
2022-12-23T03:31:01.364Z,8.41
2022-12-23T03:32:06.319Z,8.43
2022-12-23T03:33:17.639Z,8.46
2022-12-23T03:34:26.117Z,8.47
2022-12-23T03:35:41.095Z,8.47
2022-12-23T03:36:57.337Z,8.48
2022-12-23T03:38:02.775Z,8.48
2022-12-23T03:39:10.684Z,8.49
2022-12-23T03:40:21.999Z,8.50
2022-12-23T03:41:31.343Z,8.51
2022-12-23T03:42:40.670Z,8.51
2022-12-23T03:43:51.220Z,8.54
2022-12-23T03:45:28.443Z,8.55
2022-12-23T03:46:27.887Z,8.55
2022-12-23T03:47:35.905Z,8.53
2022-12-23T03:49:03.702Z,8.54
2022-12-23T03:50:11.440Z,8.54
2022-12-23T03:51:24.258Z,8.54
2022-12-23T03:52:53.590Z,8.57
2022-12-23T03:54:02.323Z,8.55
2022-12-23T03:55:11.697Z,8.55
2022-12-23T03:56:28.904Z,8.56
2022-12-23T03:57:41.760Z,8.56
2022-12-23T03:58:56.286Z,8.55
2022-12-23T03:59:59.439Z,8.55
2022-12-23T04:01:27.146Z,8.55
2022-12-23T04:02:36.790Z,8.56
2022-12-23T04:03:56.026Z,8.56
2022-12-23T04:05:11.662Z,8.54
2022-12-23T04:06:17.759Z,8.53
2022-12-23T04:07:30.558Z,8.56
2022-12-23T04:08:36.487Z,8.56
2022-12-23T04:09:40.401Z,8.57
2022-12-23T04:10:43.533Z,8.57
2022-12-23T04:11:47.811Z,8.57
2022-12-23T04:12:51.978Z,8.57
2022-12-23T04:13:54.966Z,8.57
2022-12-23T04:14:58.060Z,8.57
2022-12-23T04:16:02.920Z,8.58
2022-12-23T04:17:06.152Z,8.60
2022-12-23T04:18:10.938Z,8.60
2022-12-23T04:19:14.158Z,8.61
2022-12-23T04:20:17.363Z,8.63
2022-12-23T04:21:20.479Z,8.64
2022-12-23T04:22:23.499Z,8.66
2022-12-23T04:23:26.593Z,8.67
2022-12-23T04:24:29.647Z,8.68
2022-12-23T04:25:32.646Z,8.69
2022-12-23T04:26:35.737Z,8.72
2022-12-23T04:27:39.119Z,8.73
2022-12-23T04:28:42.122Z,8.75
2022-12-23T04:29:45.144Z,8.76
2022-12-23T04:30:48.061Z,8.77
2022-12-23T04:31:51.142Z,8.77
2022-12-23T04:32:54.282Z,8.78
2022-12-23T04:33:57.467Z,8.80
2022-12-23T04:35:00.525Z,8.82
2022-12-23T04:36:03.629Z,8.82
2022-12-23T04:37:06.645Z,8.83
2022-12-23T04:38:09.695Z,8.84
2022-12-23T04:39:12.777Z,8.84
2022-12-23T04:40:15.990Z,8.84
2022-12-23T04:41:19.021Z,8.82
2022-12-23T04:42:22.111Z,8.81
2022-12-23T04:43:25.265Z,8.80
2022-12-23T04:44:28.205Z,8.79
2022-12-23T04:45:32.802Z,8.79
2022-12-23T04:46:35.795Z,8.78
2022-12-23T04:47:38.993Z,8.77
2022-12-23T04:48:42.311Z,8.75
2022-12-23T04:49:45.405Z,8.73
2022-12-23T04:50:48.483Z,8.72
2022-12-23T04:51:51.554Z,8.71
2022-12-23T04:52:54.596Z,8.68
2022-12-23T04:53:57.595Z,8.67
2022-12-23T04:55:00.682Z,8.67
2022-12-23T04:56:04.325Z,8.67
2022-12-23T04:57:07.561Z,8.66
2022-12-23T04:58:10.538Z,8.67
2022-12-23T04:59:13.875Z,8.67
2022-12-23T05:00:17.296Z,8.68
2022-12-23T05:01:20.612Z,8.68
2022-12-23T05:02:23.749Z,8.68
2022-12-23T05:03:26.938Z,8.67
2022-12-23T05:04:30.243Z,8.66
2022-12-23T05:05:33.240Z,8.66
2022-12-23T05:06:37.501Z,8.67
2022-12-23T05:07:40.432Z,8.68
2022-12-23T05:08:43.475Z,8.67
2022-12-23T05:09:46.668Z,8.66
2022-12-23T05:10:49.696Z,8.65
2022-12-23T05:11:52.908Z,8.64
2022-12-23T05:12:55.828Z,8.64
2022-12-23T05:13:58.773Z,8.64
2022-12-23T05:15:02.006Z,8.63
2022-12-23T05:16:05.472Z,8.64
2022-12-23T05:17:08.476Z,8.63
2022-12-23T05:18:12.569Z,8.63
2022-12-23T05:19:15.595Z,8.62
2022-12-23T05:20:18.767Z,8.60
2022-12-23T05:21:21.800Z,8.58
2022-12-23T05:22:24.821Z,8.60
2022-12-23T05:23:27.944Z,8.59
2022-12-23T05:24:30.939Z,8.59
2022-12-23T05:25:36.356Z,8.58
2022-12-23T05:26:39.291Z,8.57
2022-12-23T05:27:42.257Z,8.58
2022-12-23T05:28:45.746Z,8.59
2022-12-23T05:29:48.751Z,8.58
2022-12-23T05:31:01.381Z,8.58
2022-12-23T05:32:04.710Z,8.57
2022-12-23T05:33:08.069Z,8.56
2022-12-23T05:34:11.171Z,8.56
2022-12-23T05:35:14.283Z,8.55
2022-12-23T05:36:17.566Z,8.54
2022-12-23T05:37:20.704Z,8.52
2022-12-23T05:38:24.647Z,8.52
2022-12-23T05:39:27.638Z,8.51
2022-12-23T05:40:31.648Z,8.49
2022-12-23T05:41:36.379Z,8.49
2022-12-23T05:42:39.521Z,8.48
2022-12-23T05:43:43.062Z,8.48
2022-12-23T05:44:46.099Z,8.47
2022-12-23T05:45:50.368Z,8.47
2022-12-23T05:46:53.504Z,8.47
2022-12-23T05:47:56.566Z,8.47
2022-12-23T05:48:59.994Z,8.47
2022-12-23T05:50:04.122Z,8.47
2022-12-23T05:51:07.399Z,8.47
2022-12-23T05:52:10.556Z,8.48
2022-12-23T05:53:13.531Z,8.48
2022-12-23T05:54:16.594Z,8.48
2022-12-23T05:55:19.654Z,8.48
2022-12-23T05:56:22.812Z,8.49
2022-12-23T05:57:26.094Z,8.49
2022-12-23T05:58:29.203Z,8.47
2022-12-23T05:59:32.313Z,8.46
2022-12-23T06:00:35.357Z,8.44
2022-12-23T06:01:38.492Z,8.43
2022-12-23T06:02:42.220Z,8.42
2022-12-23T06:03:45.895Z,8.42
2022-12-23T06:04:49.825Z,8.43
2022-12-23T06:05:53.018Z,8.43
2022-12-23T06:06:56.685Z,8.41
2022-12-23T06:07:59.910Z,8.42
2022-12-23T06:09:03.330Z,8.42
2022-12-23T06:10:09.151Z,8.41
2022-12-23T06:11:13.176Z,8.40
2022-12-23T06:12:16.157Z,8.40
2022-12-23T06:13:19.257Z,8.40
2022-12-23T06:14:26.967Z,8.41
2022-12-23T06:15:32.423Z,8.43
2022-12-23T06:16:35.398Z,8.43
2022-12-23T06:17:38.967Z,8.42
2022-12-23T06:18:42.007Z,8.42
2022-12-23T06:19:45.063Z,8.42
2022-12-23T06:20:48.425Z,8.42
2022-12-23T06:21:51.393Z,8.42
2022-12-23T06:22:54.392Z,8.42
2022-12-23T06:23:57.760Z,8.42
2022-12-23T06:25:00.737Z,8.41
2022-12-23T06:26:04.531Z,8.42
2022-12-23T06:27:07.919Z,8.43
2022-12-23T06:28:10.997Z,8.44
2022-12-23T06:29:14.232Z,8.46
2022-12-23T06:30:17.278Z,8.46
2022-12-23T06:31:20.346Z,8.45
2022-12-23T06:32:23.382Z,8.45
2022-12-23T06:33:26.516Z,8.46
2022-12-23T06:34:30.025Z,8.46
2022-12-23T06:35:33.118Z,8.48
2022-12-23T06:36:36.141Z,8.49
2022-12-23T06:37:39.260Z,8.50
2022-12-23T06:38:42.364Z,8.50
2022-12-23T06:39:45.659Z,8.49
2022-12-23T06:40:48.813Z,8.48
2022-12-23T06:41:51.822Z,8.48
2022-12-23T06:42:54.837Z,8.47
2022-12-23T06:43:57.747Z,8.47
2022-12-23T06:45:00.940Z,8.48
2022-12-23T06:46:04.138Z,8.48
2022-12-23T06:47:07.190Z,8.46
2022-12-23T06:48:10.394Z,8.46
2022-12-23T06:49:13.945Z,8.46
2022-12-23T06:50:17.597Z,8.46
2022-12-23T06:51:21.598Z,8.45
2022-12-23T06:52:24.527Z,8.44
2022-12-23T06:53:27.625Z,8.44
2022-12-23T06:54:30.676Z,8.43
2022-12-23T06:55:33.929Z,8.44
2022-12-23T06:56:36.972Z,8.44
2022-12-23T06:57:40.297Z,8.45
2022-12-23T06:58:43.454Z,8.45
2022-12-23T06:59:46.573Z,8.44
2022-12-23T07:00:50.114Z,8.44
2022-12-23T07:01:53.380Z,8.43
2022-12-23T07:02:56.793Z,8.42
2022-12-23T07:04:00.128Z,8.43
2022-12-23T07:05:03.196Z,8.43
2022-12-23T07:06:06.779Z,8.43
2022-12-23T07:07:09.826Z,8.43
2022-12-23T07:08:12.880Z,8.42
2022-12-23T07:09:16.030Z,8.41
2022-12-23T07:10:19.133Z,8.40
2022-12-23T07:11:22.128Z,8.40
2022-12-23T07:12:25.074Z,8.39
2022-12-23T07:13:28.061Z,8.40
2022-12-23T07:14:31.110Z,8.39
2022-12-23T07:15:34.185Z,8.37
2022-12-23T07:16:37.808Z,8.37
2022-12-23T07:17:40.891Z,8.37
2022-12-23T07:18:44.091Z,8.38
2022-12-23T07:19:47.046Z,8.38
2022-12-23T07:20:51.369Z,8.39
2022-12-23T07:21:54.579Z,8.39
2022-12-23T07:22:58.232Z,8.38
2022-12-23T07:24:01.232Z,8.37
2022-12-23T07:25:04.508Z,8.38
2022-12-23T07:26:07.579Z,8.38
2022-12-23T07:27:10.979Z,8.38
2022-12-23T07:28:13.967Z,8.39
2022-12-23T07:29:16.921Z,8.39
2022-12-23T07:30:20.011Z,8.38
2022-12-23T07:31:23.415Z,8.38
2022-12-23T07:32:26.681Z,8.38
2022-12-23T07:33:29.756Z,8.38
2022-12-23T07:34:32.746Z,8.39
2022-12-23T07:35:36.437Z,8.40
2022-12-23T07:36:40.083Z,8.40
2022-12-23T07:37:43.640Z,8.40
2022-12-23T07:38:51.300Z,8.39
2022-12-23T07:39:54.327Z,8.38
2022-12-23T07:40:57.327Z,8.38
2022-12-23T07:42:16.980Z,8.39
2022-12-23T07:43:23.803Z,8.39
2022-12-23T07:44:26.815Z,8.37
2022-12-23T07:45:30.614Z,8.35
2022-12-23T07:46:33.801Z,8.37
2022-12-23T07:47:37.054Z,8.37
2022-12-23T07:48:41.917Z,8.37
2022-12-23T07:49:44.999Z,8.37
2022-12-23T07:50:48.022Z,8.37
2022-12-23T07:51:51.024Z,8.36
2022-12-23T07:52:55.038Z,8.38
2022-12-23T07:53:58.214Z,8.39
2022-12-23T07:55:01.157Z,8.40
2022-12-23T07:56:04.602Z,8.41
2022-12-23T07:57:07.804Z,8.41
2022-12-23T07:58:10.785Z,8.41
2022-12-23T07:59:14.236Z,8.43
2022-12-23T08:00:18.281Z,8.45
2022-12-23T08:01:21.875Z,8.45
2022-12-23T08:02:25.440Z,8.46
2022-12-23T08:03:29.765Z,8.46
2022-12-23T08:04:33.032Z,8.48
2022-12-23T08:05:36.116Z,8.50
2022-12-23T08:06:39.178Z,8.51
2022-12-23T08:07:42.640Z,8.50
2022-12-23T08:08:46.867Z,8.51
2022-12-23T08:09:50.146Z,8.53
2022-12-23T08:11:00.745Z,8.54
2022-12-23T08:12:03.961Z,8.55
2022-12-23T08:13:06.868Z,8.57
2022-12-23T08:14:09.917Z,8.59
2022-12-23T08:15:13.057Z,8.61
2022-12-23T08:16:16.151Z,8.62
2022-12-23T08:17:21.512Z,8.64
2022-12-23T08:18:25.759Z,8.65
2022-12-23T08:19:28.788Z,8.65
2022-12-23T08:20:32.060Z,8.67
2022-12-23T08:21:35.014Z,8.68
2022-12-23T08:22:38.230Z,8.68
2022-12-23T08:23:42.159Z,8.68
2022-12-23T08:24:45.303Z,8.67
2022-12-23T08:25:48.519Z,8.69
2022-12-23T08:26:51.703Z,8.68
2022-12-23T08:27:54.666Z,8.68
2022-12-23T08:28:57.781Z,8.68
2022-12-23T08:30:00.842Z,8.69
2022-12-23T08:31:05.615Z,8.70
2022-12-23T08:32:08.807Z,8.70
2022-12-23T08:33:11.904Z,8.69
2022-12-23T08:34:14.912Z,8.68
2022-12-23T08:35:17.978Z,8.68
2022-12-23T08:36:25.468Z,8.68
2022-12-23T08:37:28.739Z,8.68
2022-12-23T08:38:32.882Z,8.69
2022-12-23T08:39:36.022Z,8.70
2022-12-23T08:40:40.794Z,8.70
2022-12-23T08:41:46.742Z,8.69
2022-12-23T08:42:49.759Z,8.69
2022-12-23T08:43:53.685Z,8.67
2022-12-23T08:44:56.613Z,8.68
2022-12-23T08:45:59.760Z,8.69
2022-12-23T08:47:03.325Z,8.69
2022-12-23T08:48:09.348Z,8.69
2022-12-23T08:49:12.832Z,8.69
2022-12-23T08:50:15.856Z,8.70
2022-12-23T08:51:21.642Z,8.70
2022-12-23T08:52:24.789Z,8.70
2022-12-23T08:53:27.761Z,8.71
2022-12-23T08:54:30.694Z,8.70
2022-12-23T08:55:38.732Z,8.70
2022-12-23T08:56:42.908Z,8.71
2022-12-23T08:57:46.082Z,8.72
2022-12-23T08:58:52.788Z,8.74
2022-12-23T08:59:55.825Z,8.74
2022-12-23T09:01:04.098Z,8.75
2022-12-23T09:02:10.916Z,8.76
2022-12-23T09:03:14.577Z,8.77
2022-12-23T09:04:17.773Z,8.78
2022-12-23T09:05:20.818Z,8.80
2022-12-23T09:06:30.478Z,8.79
2022-12-23T09:07:33.715Z,8.81
2022-12-23T09:08:37.225Z,8.82
2022-12-23T09:09:40.188Z,8.83
2022-12-23T09:10:44.311Z,8.84
2022-12-23T09:11:47.525Z,8.83
2022-12-23T09:12:50.657Z,8.84
2022-12-23T09:13:53.975Z,8.83
2022-12-23T09:14:57.054Z,8.84
2022-12-23T09:16:00.148Z,8.84
2022-12-23T09:17:03.123Z,8.83
2022-12-23T09:18:06.218Z,8.82
2022-12-23T09:19:09.588Z,8.83
2022-12-23T09:20:12.607Z,8.83
2022-12-23T09:21:18.332Z,8.85
2022-12-23T09:22:21.373Z,8.86
2022-12-23T09:23:24.734Z,8.85
2022-12-23T09:24:28.052Z,8.85
2022-12-23T09:25:33.621Z,8.88
2022-12-23T09:26:36.715Z,8.88
2022-12-23T09:27:39.704Z,8.88
2022-12-23T09:28:42.770Z,8.88
2022-12-23T09:29:45.889Z,8.88
2022-12-23T09:30:49.136Z,8.87
2022-12-23T09:31:52.273Z,8.88
2022-12-23T09:32:55.484Z,8.90
2022-12-23T09:33:58.599Z,8.90
2022-12-23T09:35:01.763Z,8.89
2022-12-23T09:36:06.061Z,8.89
2022-12-23T09:37:09.046Z,8.89
2022-12-23T09:38:12.201Z,8.89
2022-12-23T09:39:15.173Z,8.89
2022-12-23T09:40:21.083Z,8.90
2022-12-23T09:41:47.511Z,8.91
2022-12-23T09:43:02.755Z,8.92
2022-12-23T09:44:36.458Z,8.92
2022-12-23T09:45:42.594Z,8.91
2022-12-23T09:46:51.828Z,8.90
2022-12-23T09:47:56.716Z,8.90
2022-12-23T09:49:05.213Z,8.90
2022-12-23T09:50:24.013Z,8.92
2022-12-23T09:51:29.200Z,8.93
2022-12-23T09:53:13.007Z,8.95
2022-12-23T09:54:29.830Z,8.96
2022-12-23T09:56:02.529Z,8.98
2022-12-23T09:57:31.866Z,8.99
2022-12-23T09:58:47.070Z,8.99
2022-12-23T10:00:14.104Z,8.99
2022-12-23T10:01:44.659Z,9.00
2022-12-23T10:03:19.707Z,8.99
2022-12-23T10:04:22.959Z,8.99
2022-12-23T10:05:42.594Z,9.00
2022-12-23T10:06:50.989Z,9.01
2022-12-23T10:08:03.905Z,9.01
2022-12-23T10:09:10.022Z,9.01
2022-12-23T10:10:44.332Z,9.02
2022-12-23T10:11:53.433Z,9.01
2022-12-23T10:13:00.448Z,9.00
2022-12-23T10:14:19.625Z,8.99
2022-12-23T10:15:29.626Z,8.99
2022-12-23T10:16:38.560Z,9.00
2022-12-23T10:17:42.979Z,9.02
2022-12-23T10:19:12.829Z,9.03
2022-12-23T10:20:20.716Z,9.04
2022-12-23T10:21:33.053Z,9.06
2022-12-23T10:22:41.959Z,9.06
2022-12-23T10:23:51.314Z,9.07
2022-12-23T10:24:57.701Z,9.09
2022-12-23T10:26:03.920Z,9.10
2022-12-23T10:27:26.496Z,9.11
2022-12-23T10:28:29.508Z,9.10
2022-12-23T10:29:34.145Z,9.11
2022-12-23T10:31:05.936Z,9.13
2022-12-23T10:32:35.968Z,9.11
2022-12-23T10:33:50.027Z,9.11
2022-12-23T10:35:05.002Z,9.10
2022-12-23T10:36:22.905Z,9.12
2022-12-23T10:37:32.341Z,9.12
2022-12-23T10:38:44.959Z,9.12
2022-12-23T10:39:47.821Z,9.12
2022-12-23T10:40:57.714Z,9.11
2022-12-23T10:42:22.052Z,9.12
2022-12-23T10:43:40.226Z,9.09
2022-12-23T10:44:59.147Z,9.10
2022-12-23T10:46:27.511Z,9.12
2022-12-23T10:47:45.588Z,9.11
2022-12-23T10:49:25.461Z,9.11
2022-12-23T10:50:46.151Z,9.13
2022-12-23T10:51:53.682Z,9.12
2022-12-23T10:53:01.126Z,9.14
2022-12-23T10:54:09.905Z,9.17
2022-12-23T10:55:33.125Z,9.18
2022-12-23T10:56:37.517Z,9.20
2022-12-23T10:57:40.920Z,9.20
2022-12-23T10:58:50.000Z,9.20
2022-12-23T10:59:53.736Z,9.20
2022-12-23T11:00:59.619Z,9.20
2022-12-23T11:02:29.519Z,9.20
2022-12-23T11:03:59.714Z,9.18
2022-12-23T11:05:02.931Z,9.17
2022-12-23T11:06:08.449Z,9.20
2022-12-23T11:07:43.947Z,9.22
2022-12-23T11:08:48.469Z,9.23
2022-12-23T11:10:00.785Z,9.26
2022-12-23T11:11:04.705Z,9.27
2022-12-23T11:12:10.123Z,9.28
2022-12-23T11:13:24.682Z,9.28
2022-12-23T11:14:33.491Z,9.27
2022-12-23T11:15:39.915Z,9.25
2022-12-23T11:16:47.025Z,9.25
2022-12-23T11:18:15.867Z,9.24
2022-12-23T11:19:18.974Z,9.23
2022-12-23T11:20:22.036Z,9.24
2022-12-23T11:21:26.591Z,9.26
2022-12-23T11:22:29.708Z,9.27
2022-12-23T11:23:36.574Z,9.27
2022-12-23T11:24:43.280Z,9.28
2022-12-23T11:25:47.112Z,9.29
2022-12-23T11:27:07.018Z,9.30
2022-12-23T11:28:19.988Z,9.28
2022-12-23T11:29:28.809Z,9.27
2022-12-23T11:30:53.462Z,9.27
2022-12-23T11:31:59.352Z,9.28
2022-12-23T11:33:02.373Z,9.29
2022-12-23T11:34:14.232Z,9.30
2022-12-23T11:35:26.306Z,9.30
2022-12-23T11:36:31.488Z,9.30
2022-12-23T11:37:43.224Z,9.32
2022-12-23T11:39:00.288Z,9.35
2022-12-23T11:40:14.721Z,9.36
2022-12-23T11:41:22.533Z,9.37
2022-12-23T11:42:30.251Z,9.40
2022-12-23T11:43:34.228Z,9.43
2022-12-23T11:44:45.971Z,9.45
2022-12-23T11:46:17.480Z,9.46
2022-12-23T11:47:23.615Z,9.47
2022-12-23T11:48:30.468Z,9.47
2022-12-23T11:49:33.410Z,9.47
2022-12-23T11:50:39.555Z,9.46
2022-12-23T11:52:11.202Z,9.48
2022-12-23T11:53:25.161Z,9.50
2022-12-23T11:54:29.333Z,9.54
2022-12-23T11:55:33.026Z,9.56
2022-12-23T11:56:40.657Z,9.57
2022-12-23T11:57:46.718Z,9.59
2022-12-23T11:58:57.121Z,9.59
2022-12-23T12:00:01.579Z,9.58
2022-12-23T12:01:18.787Z,9.56
2022-12-23T12:02:47.537Z,9.55
2022-12-23T12:03:55.906Z,9.54
2022-12-23T12:05:38.377Z,9.54
2022-12-23T12:06:48.425Z,9.51
2022-12-23T12:08:01.314Z,9.49
2022-12-23T12:09:06.784Z,9.49
2022-12-23T12:10:18.248Z,9.47
2022-12-23T12:11:31.358Z,9.44
2022-12-23T12:12:34.607Z,9.43
2022-12-23T12:13:48.428Z,9.42
2022-12-23T12:14:54.533Z,9.41
2022-12-23T12:16:11.011Z,9.41
2022-12-23T12:17:22.775Z,9.41
2022-12-23T12:18:26.497Z,9.39
2022-12-23T12:19:35.757Z,9.40
2022-12-23T12:20:53.268Z,9.40
2022-12-23T12:22:02.521Z,9.40
2022-12-23T12:23:14.711Z,9.42
2022-12-23T12:24:24.280Z,9.42
2022-12-23T12:25:48.882Z,9.45
2022-12-23T12:26:57.599Z,9.45
2022-12-23T12:28:04.270Z,9.47
2022-12-23T12:29:28.576Z,9.49
2022-12-23T12:30:40.934Z,9.50
2022-12-23T12:31:52.457Z,9.48
2022-12-23T12:33:11.938Z,9.48
2022-12-23T12:34:49.642Z,9.48
2022-12-23T12:36:15.285Z,9.49
2022-12-23T12:37:24.399Z,9.48
2022-12-23T12:38:27.342Z,9.50
2022-12-23T12:39:42.938Z,9.52
2022-12-23T12:40:51.093Z,9.52
2022-12-23T12:42:05.491Z,9.54
2022-12-23T12:43:23.561Z,9.54
2022-12-23T12:44:43.451Z,9.55
2022-12-23T12:45:59.010Z,9.55
2022-12-23T12:47:36.142Z,9.54
2022-12-23T12:48:46.604Z,9.53
2022-12-23T12:50:12.655Z,9.52
2022-12-23T12:51:27.579Z,9.52
2022-12-23T12:52:39.023Z,9.54
2022-12-23T12:53:54.753Z,9.56
2022-12-23T12:55:06.166Z,9.58
2022-12-23T12:56:22.701Z,9.61
2022-12-23T12:57:26.109Z,9.62
2022-12-23T12:58:29.258Z,9.63
2022-12-23T12:59:35.602Z,9.61
2022-12-23T13:01:03.712Z,9.62
2022-12-23T13:02:25.556Z,9.61
2022-12-23T13:04:04.383Z,9.60
2022-12-23T13:05:16.036Z,9.59
2022-12-23T13:06:32.682Z,9.60
2022-12-23T13:08:03.070Z,9.62
2022-12-23T13:09:29.830Z,9.63
2022-12-23T13:10:45.301Z,9.64
2022-12-23T13:12:10.090Z,9.65
2022-12-23T13:13:23.474Z,9.64
2022-12-23T13:14:51.390Z,9.64
2022-12-23T13:16:02.917Z,9.62
2022-12-23T13:17:17.606Z,9.62
2022-12-23T13:18:51.997Z,9.62
2022-12-23T13:20:09.029Z,9.61
2022-12-23T13:21:38.611Z,9.61
2022-12-23T13:22:44.905Z,9.63
2022-12-23T13:24:09.557Z,9.66
2022-12-23T13:25:22.665Z,9.67
2022-12-23T13:26:32.850Z,9.66
2022-12-23T13:27:41.159Z,9.66
2022-12-23T13:28:51.323Z,9.65
2022-12-23T13:30:08.607Z,9.64
2022-12-23T13:31:31.172Z,9.64
2022-12-23T13:33:06.984Z,9.60
2022-12-23T13:34:34.369Z,9.57
2022-12-23T13:36:02.979Z,9.56
2022-12-23T13:37:41.957Z,9.55
2022-12-23T13:39:03.466Z,9.54
2022-12-23T13:40:17.255Z,9.56
2022-12-23T13:41:39.637Z,9.58
2022-12-23T13:42:48.296Z,9.60
2022-12-23T13:44:05.417Z,9.63
2022-12-23T13:45:16.535Z,9.63
2022-12-23T13:46:37.686Z,9.63
2022-12-23T13:48:01.125Z,9.63
2022-12-23T13:49:41.707Z,9.62
2022-12-23T13:51:08.172Z,9.61
2022-12-23T13:52:35.994Z,9.62
2022-12-23T13:53:44.494Z,9.62
2022-12-23T13:54:56.145Z,9.61
2022-12-23T13:56:22.914Z,9.60
2022-12-23T13:57:35.598Z,9.60
2022-12-23T13:58:40.373Z,9.59
2022-12-23T14:00:01.093Z,9.59
2022-12-23T14:01:16.037Z,9.56
2022-12-23T14:02:57.851Z,9.56
2022-12-23T14:04:28.791Z,9.52
2022-12-23T14:05:31.926Z,9.51
2022-12-23T14:06:36.733Z,9.52
2022-12-23T14:07:44.716Z,9.52
2022-12-23T14:08:48.543Z,9.53
2022-12-23T14:09:55.909Z,9.53
2022-12-23T14:11:10.991Z,9.53
2022-12-23T14:12:26.732Z,9.52
2022-12-23T14:13:42.333Z,9.52
2022-12-23T14:15:12.355Z,9.52
2022-12-23T14:16:21.479Z,9.50
2022-12-23T14:17:49.821Z,9.50
2022-12-23T14:19:29.710Z,9.49
2022-12-23T14:20:39.255Z,9.49
2022-12-23T14:21:48.745Z,9.49
2022-12-23T14:23:30.172Z,9.50
2022-12-23T14:25:00.447Z,9.49
2022-12-23T14:26:09.488Z,9.47
2022-12-23T14:27:35.606Z,9.47
2022-12-23T14:28:51.767Z,9.47
2022-12-23T14:30:16.669Z,9.46
2022-12-23T14:31:28.903Z,9.43
2022-12-23T14:32:41.983Z,9.42
2022-12-23T14:33:48.717Z,9.42
2022-12-23T14:35:17.013Z,9.41
2022-12-23T14:36:25.634Z,9.39
2022-12-23T14:37:33.508Z,9.37
2022-12-23T14:38:36.521Z,9.36
2022-12-23T14:39:39.540Z,9.36
2022-12-23T14:40:42.487Z,9.35
2022-12-23T14:41:51.798Z,9.34
2022-12-23T14:43:42.588Z,9.34
2022-12-23T14:44:46.553Z,9.30
2022-12-23T14:45:54.733Z,9.27
2022-12-23T14:46:58.685Z,9.26
2022-12-23T14:48:22.534Z,9.26
2022-12-23T14:49:41.529Z,9.26
2022-12-23T14:50:57.707Z,9.25
2022-12-23T14:52:39.190Z,9.25
2022-12-23T14:53:59.527Z,9.23
2022-12-23T14:55:30.165Z,9.22
2022-12-23T14:56:40.539Z,9.20
2022-12-23T14:57:44.935Z,9.20
2022-12-23T14:59:09.073Z,9.21
2022-12-23T15:00:13.096Z,9.22
2022-12-23T15:01:28.003Z,9.22
2022-12-23T15:02:39.024Z,9.22
2022-12-23T15:03:46.031Z,9.22
2022-12-23T15:04:57.908Z,9.22
2022-12-23T15:06:06.367Z,9.22
2022-12-23T15:07:19.213Z,9.22
2022-12-23T15:08:30.478Z,9.23
2022-12-23T15:10:01.161Z,9.25
2022-12-23T15:11:07.355Z,9.24
2022-12-23T15:12:18.979Z,9.24
2022-12-23T15:13:24.095Z,9.25
2022-12-23T15:14:48.234Z,9.25
2022-12-23T15:16:00.970Z,9.26
2022-12-23T15:17:29.403Z,9.28
2022-12-23T15:18:32.616Z,9.26
2022-12-23T15:19:45.115Z,9.27
2022-12-23T15:21:12.479Z,9.27
2022-12-23T15:22:22.751Z,9.27
2022-12-23T15:23:28.927Z,9.26
2022-12-23T15:24:31.934Z,9.27
2022-12-23T15:25:40.342Z,9.29
2022-12-23T15:27:09.805Z,9.29
2022-12-23T15:28:22.941Z,9.30